Babelthuap Airport Babelthuap Island PW
ICAO: PTRO
IATA:
Category: Medium
Scheduled Services:

Elevation: 176 ft
TransAlt. 0 ft.

Airport Communications:
KOROR RDO:123.6

PTRO Zoom In..

If you have problems with the map follow the link
https://www.worldairports.se/pages/airport.php?
ICAO=PTRO

Runways:

(A) RW 09 length 7200 ft width 151 ft
---- / hdg 90

(B) RW 27 length 7200 ft width 151 ft
---- / hdg 270

Location; PTRO
Day. 14 / Time. 08.50 Zulu
* Altimeter: 29.77
* Temperature: 29° c. 84.2°f.
* Wind from: 290° Speed 05 kn.
Dewpoint: 24° c.
Visibility: 15 Statute Miles.
Clouds: Scattered 1700 ft.
Clouds: Scattered 12000 ft.
Clouds: Broken 3000 ft.

PTRO 140850Z 29005KT 15SM SCT017 SCT120 BKN300 29/24 A2977


Wind From 290°
Speed 05 kn.

 
 
jpsmedia worldairports.se 2019   terms of use